createdAt,value
2022-09-26T00:04:23.654Z,10.10
2022-09-26T00:09:29.239Z,10.03
2022-09-26T00:14:35.223Z,9.97
2022-09-26T00:19:38.571Z,9.92
2022-09-26T00:24:41.862Z,9.99
2022-09-26T00:29:47.128Z,9.91
2022-09-26T00:34:51.123Z,9.93
2022-09-26T00:39:54.652Z,9.95
2022-09-26T00:45:02.805Z,9.90
2022-09-26T00:50:13.450Z,9.84
2022-09-26T00:55:20.780Z,9.93
2022-09-26T01:00:25.549Z,9.94
2022-09-26T01:05:29.629Z,9.92
2022-09-26T01:10:35.422Z,10.03
2022-09-26T01:15:40.162Z,9.90
2022-09-26T01:20:53.029Z,9.96
2022-09-26T01:26:30.227Z,9.96
2022-09-26T01:31:43.756Z,9.91
2022-09-26T01:37:03.320Z,9.89
2022-09-26T01:42:18.091Z,9.88
2022-09-26T01:47:28.761Z,9.93
2022-09-26T01:52:38.142Z,10.01
2022-09-26T01:57:48.602Z,9.89
2022-09-26T02:02:57.237Z,9.88
2022-09-26T02:08:06.552Z,9.95
2022-09-26T02:13:16.041Z,10.08
2022-09-26T02:18:24.883Z,10.02
2022-09-26T02:23:28.302Z,9.99
2022-09-26T02:28:32.066Z,10.01
2022-09-26T02:33:38.169Z,10.11
2022-09-26T02:38:42.120Z,10.05
2022-09-26T02:44:26.318Z,9.93
2022-09-26T02:49:50.912Z,10.14
2022-09-26T02:55:04.152Z,10.08
2022-09-26T03:00:12.089Z,10.03
2022-09-26T03:05:21.999Z,10.14
2022-09-26T03:10:28.457Z,9.94
2022-09-26T03:15:35.186Z,10.13
2022-09-26T03:20:40.942Z,10.18
2022-09-26T03:25:45.000Z,10.33
2022-09-26T03:30:50.995Z,10.45
2022-09-26T03:36:07.517Z,10.58
2022-09-26T03:41:12.304Z,10.34
2022-09-26T03:46:21.145Z,10.20
2022-09-26T03:51:26.637Z,10.18
2022-09-26T03:56:30.307Z,10.32
2022-09-26T04:01:34.110Z,10.41
2022-09-26T04:06:39.427Z,10.34
2022-09-26T04:11:43.256Z,10.23
2022-09-26T04:16:47.143Z,10.29
2022-09-26T04:22:08.366Z,10.10
2022-09-26T04:27:12.299Z,10.14
2022-09-26T04:32:15.985Z,10.13
2022-09-26T04:37:38.203Z,10.06
2022-09-26T04:42:42.732Z,9.98
2022-09-26T04:47:46.931Z,9.90
2022-09-26T04:53:05.327Z,10.00
2022-09-26T04:58:10.492Z,10.10
2022-09-26T05:03:14.758Z,10.13
2022-09-26T05:08:19.792Z,10.01
2022-09-26T05:13:24.074Z,10.17
2022-09-26T05:18:28.201Z,10.33
2022-09-26T05:23:50.688Z,10.42
2022-09-26T05:28:56.484Z,10.52
2022-09-26T05:34:05.786Z,10.68
2022-09-26T05:39:31.444Z,10.81
2022-09-26T05:44:35.076Z,10.69
2022-09-26T05:49:40.437Z,10.61
2022-09-26T05:54:48.735Z,10.56
2022-09-26T06:00:14.284Z,10.57
2022-09-26T06:05:23.733Z,10.73
2022-09-26T06:10:50.525Z,10.96
2022-09-26T06:15:55.153Z,10.97
2022-09-26T06:20:58.862Z,11.31
2022-09-26T06:26:08.527Z,11.16
2022-09-26T06:31:13.000Z,11.13
2022-09-26T06:36:35.988Z,11.14
2022-09-26T06:41:40.766Z,11.09
2022-09-26T06:47:02.540Z,11.14
2022-09-26T06:52:12.065Z,11.14
2022-09-26T06:57:17.773Z,11.21
2022-09-26T07:02:21.594Z,11.22
2022-09-26T07:08:03.958Z,11.45
2022-09-26T07:13:11.111Z,11.38
2022-09-26T07:18:14.936Z,11.38
2022-09-26T07:23:36.602Z,11.44
2022-09-26T07:28:41.491Z,11.43
2022-09-26T07:33:44.972Z,11.63
2022-09-26T07:38:49.589Z,11.70
2022-09-26T07:49:38.939Z,11.84
2022-09-26T07:54:45.388Z,11.88
2022-09-26T08:00:06.057Z,11.64
2022-09-26T08:05:25.634Z,11.72
2022-09-26T08:10:29.565Z,11.57
2022-09-26T08:16:06.093Z,11.83
2022-09-26T08:21:14.358Z,12.10
2022-09-26T08:26:23.937Z,12.36
2022-09-26T08:31:35.229Z,12.47
2022-09-26T08:36:38.922Z,12.78
2022-09-26T08:42:28.832Z,12.62
2022-09-26T08:48:08.138Z,12.45
2022-09-26T08:53:23.758Z,12.44
2022-09-26T08:58:38.742Z,12.34
2022-09-26T09:03:52.752Z,12.24
2022-09-26T09:08:58.262Z,12.48
2022-09-26T09:14:24.372Z,12.30
2022-09-26T09:19:48.938Z,12.44
2022-09-26T09:25:24.756Z,12.18
2022-09-26T09:30:37.098Z,12.22
2022-09-26T09:36:11.893Z,12.24
2022-09-26T09:41:52.164Z,12.53
2022-09-26T09:46:57.545Z,12.46
2022-09-26T09:52:15.143Z,12.74
2022-09-26T09:57:42.668Z,12.85
2022-09-26T10:02:53.217Z,12.98
2022-09-26T10:08:22.610Z,13.04
2022-09-26T10:13:46.277Z,13.27
2022-09-26T10:19:07.217Z,13.12
2022-09-26T10:24:27.988Z,13.15
2022-09-26T10:29:38.411Z,13.24
2022-09-26T10:34:42.436Z,13.17
2022-09-26T10:40:11.815Z,13.48
2022-09-26T10:45:20.432Z,13.86
2022-09-26T10:51:02.022Z,14.05
2022-09-26T10:56:26.394Z,14.42
2022-09-26T11:01:33.653Z,14.64
2022-09-26T11:06:44.049Z,14.63
2022-09-26T11:12:23.955Z,14.90
2022-09-26T11:17:47.397Z,14.88
2022-09-26T11:23:00.692Z,15.68
2022-09-26T11:28:12.712Z,16.34
2022-09-26T11:33:36.233Z,16.40
2022-09-26T11:38:59.464Z,16.03
2022-09-26T11:44:23.729Z,16.84
2022-09-26T11:50:09.206Z,16.11
2022-09-26T11:55:51.436Z,15.41
2022-09-26T12:01:01.614Z,15.39
2022-09-26T12:06:20.088Z,15.09
2022-09-26T12:11:34.106Z,15.63
2022-09-26T12:16:49.702Z,15.61
2022-09-26T12:22:19.179Z,15.50
2022-09-26T12:27:26.585Z,16.10
2022-09-26T12:32:56.689Z,15.74
2022-09-26T12:38:25.055Z,15.02
2022-09-26T12:43:49.031Z,16.02
2022-09-26T12:49:12.108Z,16.84
2022-09-26T12:54:45.941Z,16.46
2022-09-26T13:00:16.734Z,16.41
2022-09-26T13:06:08.373Z,16.22
2022-09-26T13:11:22.860Z,15.86
2022-09-26T13:16:38.625Z,15.60
2022-09-26T13:21:59.477Z,15.77
2022-09-26T13:27:13.345Z,16.19
2022-09-26T13:32:23.053Z,16.25
2022-09-26T13:37:39.173Z,15.77
2022-09-26T13:43:07.551Z,15.62
2022-09-26T13:48:42.994Z,15.49
2022-09-26T13:54:06.074Z,15.52
2022-09-26T13:59:30.766Z,15.81
2022-09-26T14:04:46.005Z,15.98
2022-09-26T14:09:59.100Z,15.71
2022-09-26T14:15:22.795Z,15.34
2022-09-26T14:20:29.823Z,15.34
2022-09-26T14:25:56.744Z,15.60
2022-09-26T14:31:12.460Z,15.60
2022-09-26T14:36:26.108Z,15.35
2022-09-26T14:41:34.719Z,15.23
2022-09-26T14:46:38.821Z,15.30
2022-09-26T14:51:49.638Z,15.12
2022-09-26T14:57:08.118Z,15.29
2022-09-26T15:02:21.605Z,14.91
2022-09-26T15:07:26.670Z,14.23
2022-09-26T15:12:39.969Z,14.08
2022-09-26T15:17:49.488Z,14.19
2022-09-26T15:22:57.337Z,14.25
2022-09-26T15:28:02.870Z,14.32
2022-09-26T15:33:07.501Z,13.92
2022-09-26T15:38:14.095Z,13.74
2022-09-26T15:43:21.525Z,13.68
2022-09-26T15:48:38.727Z,13.45
2022-09-26T15:53:46.809Z,13.33
2022-09-26T15:58:54.057Z,13.22
2022-09-26T16:03:59.655Z,13.04
2022-09-26T16:09:09.149Z,12.79
2022-09-26T16:14:34.283Z,12.75
2022-09-26T16:19:47.298Z,12.55
2022-09-26T16:24:52.301Z,12.31
2022-09-26T16:30:04.697Z,12.35
2022-09-26T16:35:19.756Z,12.33
2022-09-26T16:40:23.359Z,12.09
2022-09-26T16:45:28.441Z,11.97
2022-09-26T16:50:36.862Z,11.73
2022-09-26T16:55:47.300Z,11.52
2022-09-26T17:01:10.223Z,11.40
2022-09-26T17:06:43.015Z,11.37
2022-09-26T17:11:48.521Z,11.17
2022-09-26T17:16:55.505Z,11.01
2022-09-26T17:22:00.532Z,10.97
2022-09-26T17:27:07.140Z,10.83
2022-09-26T17:32:15.158Z,10.72
2022-09-26T17:37:22.094Z,10.68
2022-09-26T17:42:25.715Z,10.68
2022-09-26T17:47:31.786Z,10.72
2022-09-26T17:52:36.852Z,10.56
2022-09-26T17:57:41.832Z,10.46
2022-09-26T18:02:56.327Z,10.24
2022-09-26T18:08:05.593Z,10.27
2022-09-26T18:13:17.082Z,10.16
2022-09-26T18:18:42.209Z,10.18
2022-09-26T18:24:09.383Z,9.92
2022-09-26T18:29:15.543Z,10.01
2022-09-26T18:34:44.723Z,9.94
2022-09-26T18:40:03.866Z,9.97
2022-09-26T18:45:20.541Z,10.24
2022-09-26T18:50:36.355Z,10.37
2022-09-26T18:55:58.851Z,10.36
2022-09-26T19:01:15.349Z,10.35
2022-09-26T19:06:23.713Z,10.12
2022-09-26T19:11:28.495Z,10.15
2022-09-26T19:16:32.001Z,10.23
2022-09-26T19:21:39.403Z,10.17
2022-09-26T19:26:44.535Z,10.05
2022-09-26T19:31:48.007Z,9.75
2022-09-26T19:36:53.943Z,9.73
2022-09-26T19:41:57.575Z,9.84
2022-09-26T19:47:03.113Z,9.59
2022-09-26T19:52:16.240Z,9.65
2022-09-26T20:02:32.629Z,9.38
2022-09-26T20:07:36.264Z,9.34
2022-09-26T20:12:39.696Z,9.58
2022-09-26T20:17:46.686Z,9.58
2022-09-26T20:22:51.141Z,9.32
2022-09-26T20:27:55.963Z,9.13
2022-09-26T20:33:01.121Z,9.06
2022-09-26T20:38:10.263Z,9.13
2022-09-26T20:43:18.735Z,9.62
2022-09-26T20:48:26.671Z,9.77
2022-09-26T20:53:36.773Z,9.86
2022-09-26T20:58:42.309Z,9.92
2022-09-26T21:03:49.926Z,9.87
2022-09-26T21:08:53.434Z,9.78
2022-09-26T21:13:59.872Z,9.54
2022-09-26T21:19:05.529Z,9.46
2022-09-26T21:24:18.070Z,9.40
2022-09-26T21:29:31.472Z,9.24
2022-09-26T21:34:38.905Z,9.26
2022-09-26T21:39:45.919Z,9.16
2022-09-26T21:44:54.910Z,9.12
2022-09-26T21:50:13.427Z,9.10
2022-09-26T21:55:29.782Z,9.03
2022-09-26T22:00:35.322Z,9.00
2022-09-26T22:05:41.853Z,9.01
2022-09-26T22:10:46.307Z,8.87
2022-09-26T22:15:52.742Z,8.72
2022-09-26T22:20:57.593Z,8.74
2022-09-26T22:26:01.304Z,8.70
2022-09-26T22:31:05.943Z,8.80
2022-09-26T22:36:11.062Z,8.88
2022-09-26T22:41:25.837Z,8.91
2022-09-26T22:46:34.300Z,8.83
2022-09-26T22:51:39.878Z,8.85
2022-09-26T22:56:43.335Z,8.99
2022-09-26T23:01:47.090Z,8.90
2022-09-26T23:06:52.883Z,8.86
2022-09-26T23:11:56.503Z,8.91
2022-09-26T23:16:59.917Z,8.96
2022-09-26T23:22:04.871Z,8.98
2022-09-26T23:27:08.649Z,8.92
2022-09-26T23:32:12.084Z,8.82
2022-09-26T23:37:16.743Z,8.71
2022-09-26T23:42:20.053Z,8.85
2022-09-26T23:47:23.440Z,8.82
2022-09-26T23:52:28.168Z,8.71
2022-09-26T23:57:31.464Z,8.69
